sensor_id;sensor_type;location;lat;lon;timestamp;P1;durP1;ratioP1;P2;durP2;ratioP2
30635;SDS011;17400;52.392;9.750;2023-05-07T00:00:00;23.05;;;14.95;;
30635;SDS011;17400;52.392;9.750;2023-05-07T00:02:30;16.88;;;10.95;;
30635;SDS011;17400;52.392;9.750;2023-05-07T00:04:58;18.52;;;11.32;;
30635;SDS011;17400;52.392;9.750;2023-05-07T00:07:26;19.77;;;11.98;;
30635;SDS011;17400;52.392;9.750;2023-05-07T00:09:55;18.73;;;11.07;;
30635;SDS011;17400;52.392;9.750;2023-05-07T00:12:23;23.02;;;12.98;;
30635;SDS011;17400;52.392;9.750;2023-05-07T00:14:50;20.90;;;12.73;;
30635;SDS011;17400;52.392;9.750;2023-05-07T00:17:18;19.42;;;13.38;;
30635;SDS011;17400;52.392;9.750;2023-05-07T00:19:46;19.55;;;11.95;;
30635;SDS011;17400;52.392;9.750;2023-05-07T00:22:14;17.73;;;12.55;;
30635;SDS011;17400;52.392;9.750;2023-05-07T00:24:41;22.30;;;13.63;;
30635;SDS011;17400;52.392;9.750;2023-05-07T00:27:11;22.95;;;13.60;;
30635;SDS011;17400;52.392;9.750;2023-05-07T00:29:40;20.17;;;13.77;;
30635;SDS011;17400;52.392;9.750;2023-05-07T00:32:07;20.83;;;10.90;;
30635;SDS011;17400;52.392;9.750;2023-05-07T00:34:35;15.85;;;9.48;;
30635;SDS011;17400;52.392;9.750;2023-05-07T00:37:03;19.77;;;12.07;;
30635;SDS011;17400;52.392;9.750;2023-05-07T00:39:32;21.63;;;12.65;;
30635;SDS011;17400;52.392;9.750;2023-05-07T00:41:59;21.60;;;13.82;;
30635;SDS011;17400;52.392;9.750;2023-05-07T00:44:31;20.42;;;12.98;;
30635;SDS011;17400;52.392;9.750;2023-05-07T00:46:59;22.17;;;12.98;;
30635;SDS011;17400;52.392;9.750;2023-05-07T00:49:31;21.92;;;13.63;;
30635;SDS011;17400;52.392;9.750;2023-05-07T00:52:05;21.60;;;12.32;;
30635;SDS011;17400;52.392;9.750;2023-05-07T00:54:33;25.17;;;15.02;;
30635;SDS011;17400;52.392;9.750;2023-05-07T00:57:02;27.52;;;14.23;;
30635;SDS011;17400;52.392;9.750;2023-05-07T00:59:32;21.50;;;14.02;;
30635;SDS011;17400;52.392;9.750;2023-05-07T01:02:01;21.58;;;13.38;;
30635;SDS011;17400;52.392;9.750;2023-05-07T01:04:28;20.65;;;13.85;;
30635;SDS011;17400;52.392;9.750;2023-05-07T01:06:57;23.23;;;13.55;;
30635;SDS011;17400;52.392;9.750;2023-05-07T01:09:27;21.55;;;12.63;;
30635;SDS011;17400;52.392;9.750;2023-05-07T01:11:56;22.50;;;13.25;;
30635;SDS011;17400;52.392;9.750;2023-05-07T01:14:25;25.25;;;12.82;;
30635;SDS011;17400;52.392;9.750;2023-05-07T01:16:55;26.73;;;14.30;;
30635;SDS011;17400;52.392;9.750;2023-05-07T01:19:23;25.20;;;13.48;;
30635;SDS011;17400;52.392;9.750;2023-05-07T01:21:50;22.60;;;13.20;;
30635;SDS011;17400;52.392;9.750;2023-05-07T01:24:20;21.48;;;13.15;;
30635;SDS011;17400;52.392;9.750;2023-05-07T01:26:48;22.15;;;13.88;;
30635;SDS011;17400;52.392;9.750;2023-05-07T01:29:16;23.35;;;14.30;;
30635;SDS011;17400;52.392;9.750;2023-05-07T01:31:44;25.02;;;14.88;;
30635;SDS011;17400;52.392;9.750;2023-05-07T01:34:12;26.02;;;15.27;;
30635;SDS011;17400;52.392;9.750;2023-05-07T01:36:41;24.52;;;14.82;;
30635;SDS011;17400;52.392;9.750;2023-05-07T01:39:10;22.75;;;14.63;;
30635;SDS011;17400;52.392;9.750;2023-05-07T01:41:40;28.23;;;15.43;;
30635;SDS011;17400;52.392;9.750;2023-05-07T01:44:10;23.95;;;13.52;;
30635;SDS011;17400;52.392;9.750;2023-05-07T01:46:40;28.17;;;15.98;;
30635;SDS011;17400;52.392;9.750;2023-05-07T01:49:08;20.88;;;13.60;;
30635;SDS011;17400;52.392;9.750;2023-05-07T01:51:36;28.77;;;16.60;;
30635;SDS011;17400;52.392;9.750;2023-05-07T01:54:04;21.88;;;13.65;;
30635;SDS011;17400;52.392;9.750;2023-05-07T01:56:33;21.63;;;13.48;;
30635;SDS011;17400;52.392;9.750;2023-05-07T01:59:03;25.55;;;14.35;;
30635;SDS011;17400;52.392;9.750;2023-05-07T02:01:31;21.13;;;11.98;;
30635;SDS011;17400;52.392;9.750;2023-05-07T02:03:59;21.02;;;12.30;;
30635;SDS011;17400;52.392;9.750;2023-05-07T02:06:27;22.13;;;12.52;;
30635;SDS011;17400;52.392;9.750;2023-05-07T02:08:55;21.42;;;13.02;;
30635;SDS011;17400;52.392;9.750;2023-05-07T02:11:23;24.08;;;12.93;;
30635;SDS011;17400;52.392;9.750;2023-05-07T02:13:51;21.52;;;12.73;;
30635;SDS011;17400;52.392;9.750;2023-05-07T02:16:20;22.55;;;13.40;;
30635;SDS011;17400;52.392;9.750;2023-05-07T02:18:49;19.08;;;10.13;;
30635;SDS011;17400;52.392;9.750;2023-05-07T02:21:17;18.77;;;10.52;;
30635;SDS011;17400;52.392;9.750;2023-05-07T02:23:45;15.38;;;10.52;;
30635;SDS011;17400;52.392;9.750;2023-05-07T02:26:12;16.30;;;9.32;;
30635;SDS011;17400;52.392;9.750;2023-05-07T02:28:40;18.02;;;9.77;;
30635;SDS011;17400;52.392;9.750;2023-05-07T02:31:08;16.02;;;9.43;;
30635;SDS011;17400;52.392;9.750;2023-05-07T02:33:37;15.27;;;9.38;;
30635;SDS011;17400;52.392;9.750;2023-05-07T02:36:05;12.10;;;7.97;;
30635;SDS011;17400;52.392;9.750;2023-05-07T02:38:34;15.75;;;9.55;;
30635;SDS011;17400;52.392;9.750;2023-05-07T02:41:02;13.82;;;8.35;;
30635;SDS011;17400;52.392;9.750;2023-05-07T02:43:30;14.77;;;8.88;;
30635;SDS011;17400;52.392;9.750;2023-05-07T02:46:01;13.88;;;8.85;;
30635;SDS011;17400;52.392;9.750;2023-05-07T02:48:30;13.45;;;7.32;;
30635;SDS011;17400;52.392;9.750;2023-05-07T02:50:59;14.13;;;8.63;;
30635;SDS011;17400;52.392;9.750;2023-05-07T02:53:27;12.85;;;6.95;;
30635;SDS011;17400;52.392;9.750;2023-05-07T02:55:56;11.65;;;7.03;;
30635;SDS011;17400;52.392;9.750;2023-05-07T02:58:25;15.32;;;8.20;;
30635;SDS011;17400;52.392;9.750;2023-05-07T03:00:53;10.88;;;7.35;;
30635;SDS011;17400;52.392;9.750;2023-05-07T03:03:21;14.25;;;8.27;;
30635;SDS011;17400;52.392;9.750;2023-05-07T03:05:49;9.75;;;5.93;;
30635;SDS011;17400;52.392;9.750;2023-05-07T03:08:18;14.23;;;7.75;;
30635;SDS011;17400;52.392;9.750;2023-05-07T03:10:46;16.70;;;9.18;;
30635;SDS011;17400;52.392;9.750;2023-05-07T03:13:14;13.75;;;7.00;;
30635;SDS011;17400;52.392;9.750;2023-05-07T03:15:42;11.52;;;7.53;;
30635;SDS011;17400;52.392;9.750;2023-05-07T03:18:10;14.13;;;10.05;;
30635;SDS011;17400;52.392;9.750;2023-05-07T03:20:38;11.20;;;7.22;;
30635;SDS011;17400;52.392;9.750;2023-05-07T03:23:06;11.93;;;8.23;;
30635;SDS011;17400;52.392;9.750;2023-05-07T03:25:37;15.52;;;8.25;;
30635;SDS011;17400;52.392;9.750;2023-05-07T03:28:04;10.10;;;5.68;;
30635;SDS011;17400;52.392;9.750;2023-05-07T03:30:32;15.25;;;8.48;;
30635;SDS011;17400;52.392;9.750;2023-05-07T03:33:00;14.88;;;9.68;;
30635;SDS011;17400;52.392;9.750;2023-05-07T03:35:28;14.18;;;8.50;;
30635;SDS011;17400;52.392;9.750;2023-05-07T03:37:55;14.65;;;8.68;;
30635;SDS011;17400;52.392;9.750;2023-05-07T03:40:23;15.43;;;8.95;;
30635;SDS011;17400;52.392;9.750;2023-05-07T03:42:52;15.15;;;6.68;;
30635;SDS011;17400;52.392;9.750;2023-05-07T03:45:20;13.30;;;8.27;;
30635;SDS011;17400;52.392;9.750;2023-05-07T03:47:48;14.40;;;7.70;;
30635;SDS011;17400;52.392;9.750;2023-05-07T03:50:16;12.13;;;7.80;;
30635;SDS011;17400;52.392;9.750;2023-05-07T03:52:43;13.02;;;8.35;;
30635;SDS011;17400;52.392;9.750;2023-05-07T03:55:11;11.35;;;6.35;;
30635;SDS011;17400;52.392;9.750;2023-05-07T03:57:39;10.75;;;6.95;;
30635;SDS011;17400;52.392;9.750;2023-05-07T04:00:09;14.90;;;7.55;;
30635;SDS011;17400;52.392;9.750;2023-05-07T04:02:37;10.20;;;7.38;;
30635;SDS011;17400;52.392;9.750;2023-05-07T04:05:05;12.73;;;7.80;;
30635;SDS011;17400;52.392;9.750;2023-05-07T04:07:33;9.43;;;6.05;;
30635;SDS011;17400;52.392;9.750;2023-05-07T04:10:01;12.50;;;8.38;;
30635;SDS011;17400;52.392;9.750;2023-05-07T04:12:29;12.13;;;7.28;;
30635;SDS011;17400;52.392;9.750;2023-05-07T04:14:56;9.10;;;5.13;;
30635;SDS011;17400;52.392;9.750;2023-05-07T04:17:25;13.75;;;8.25;;
30635;SDS011;17400;52.392;9.750;2023-05-07T04:19:53;13.13;;;7.60;;
30635;SDS011;17400;52.392;9.750;2023-05-07T04:22:21;12.93;;;7.60;;
30635;SDS011;17400;52.392;9.750;2023-05-07T04:24:48;12.73;;;7.65;;
30635;SDS011;17400;52.392;9.750;2023-05-07T04:27:16;11.43;;;7.45;;
30635;SDS011;17400;52.392;9.750;2023-05-07T04:29:43;12.23;;;8.30;;
30635;SDS011;17400;52.392;9.750;2023-05-07T04:32:13;14.55;;;8.30;;
30635;SDS011;17400;52.392;9.750;2023-05-07T04:34:43;11.93;;;7.07;;
30635;SDS011;17400;52.392;9.750;2023-05-07T04:37:10;13.57;;;8.63;;
30635;SDS011;17400;52.392;9.750;2023-05-07T04:39:38;11.93;;;7.32;;
30635;SDS011;17400;52.392;9.750;2023-05-07T04:42:06;15.82;;;9.77;;
30635;SDS011;17400;52.392;9.750;2023-05-07T04:44:35;13.15;;;8.80;;
30635;SDS011;17400;52.392;9.750;2023-05-07T04:47:03;13.80;;;7.65;;
30635;SDS011;17400;52.392;9.750;2023-05-07T04:49:31;21.58;;;9.50;;
30635;SDS011;17400;52.392;9.750;2023-05-07T04:52:00;15.23;;;9.45;;
30635;SDS011;17400;52.392;9.750;2023-05-07T04:54:27;16.63;;;9.73;;
30635;SDS011;17400;52.392;9.750;2023-05-07T04:56:55;12.98;;;8.05;;
30635;SDS011;17400;52.392;9.750;2023-05-07T04:59:23;13.73;;;9.38;;
30635;SDS011;17400;52.392;9.750;2023-05-07T05:01:50;11.82;;;8.25;;
30635;SDS011;17400;52.392;9.750;2023-05-07T05:04:18;12.75;;;7.90;;
30635;SDS011;17400;52.392;9.750;2023-05-07T05:06:46;13.07;;;8.95;;
30635;SDS011;17400;52.392;9.750;2023-05-07T05:09:15;13.10;;;8.07;;
30635;SDS011;17400;52.392;9.750;2023-05-07T05:11:43;11.13;;;7.28;;
30635;SDS011;17400;52.392;9.750;2023-05-07T05:14:11;11.30;;;7.50;;
30635;SDS011;17400;52.392;9.750;2023-05-07T05:16:39;10.05;;;6.70;;
30635;SDS011;17400;52.392;9.750;2023-05-07T05:19:06;12.95;;;6.65;;
30635;SDS011;17400;52.392;9.750;2023-05-07T05:21:34;12.38;;;8.68;;
30635;SDS011;17400;52.392;9.750;2023-05-07T05:24:04;15.40;;;9.55;;
30635;SDS011;17400;52.392;9.750;2023-05-07T05:26:34;13.73;;;7.80;;
30635;SDS011;17400;52.392;9.750;2023-05-07T05:29:02;11.88;;;7.47;;
30635;SDS011;17400;52.392;9.750;2023-05-07T05:31:29;12.05;;;6.45;;
30635;SDS011;17400;52.392;9.750;2023-05-07T05:33:57;11.02;;;7.13;;
30635;SDS011;17400;52.392;9.750;2023-05-07T05:36:25;11.88;;;8.25;;
30635;SDS011;17400;52.392;9.750;2023-05-07T05:38:53;11.63;;;6.35;;
30635;SDS011;17400;52.392;9.750;2023-05-07T05:41:20;11.05;;;7.75;;
30635;SDS011;17400;52.392;9.750;2023-05-07T05:43:50;12.88;;;7.90;;
30635;SDS011;17400;52.392;9.750;2023-05-07T05:46:18;10.52;;;6.85;;
30635;SDS011;17400;52.392;9.750;2023-05-07T05:48:45;11.32;;;8.13;;
30635;SDS011;17400;52.392;9.750;2023-05-07T05:51:13;11.88;;;7.18;;
30635;SDS011;17400;52.392;9.750;2023-05-07T05:53:41;12.55;;;7.43;;
30635;SDS011;17400;52.392;9.750;2023-05-07T05:56:08;14.50;;;7.15;;
30635;SDS011;17400;52.392;9.750;2023-05-07T05:58:36;13.00;;;7.07;;
30635;SDS011;17400;52.392;9.750;2023-05-07T06:01:05;11.27;;;6.90;;
30635;SDS011;17400;52.392;9.750;2023-05-07T06:03:33;11.10;;;7.53;;
30635;SDS011;17400;52.392;9.750;2023-05-07T06:06:00;12.10;;;8.10;;
30635;SDS011;17400;52.392;9.750;2023-05-07T06:08:29;13.07;;;7.95;;
30635;SDS011;17400;52.392;9.750;2023-05-07T06:10:57;12.93;;;8.20;;
30635;SDS011;17400;52.392;9.750;2023-05-07T06:13:25;11.27;;;7.80;;
30635;SDS011;17400;52.392;9.750;2023-05-07T06:15:53;11.65;;;8.75;;
30635;SDS011;17400;52.392;9.750;2023-05-07T06:18:22;10.57;;;7.38;;
30635;SDS011;17400;52.392;9.750;2023-05-07T06:20:50;11.45;;;6.88;;
30635;SDS011;17400;52.392;9.750;2023-05-07T06:23:18;9.98;;;6.47;;
30635;SDS011;17400;52.392;9.750;2023-05-07T06:25:49;11.20;;;6.72;;
30635;SDS011;17400;52.392;9.750;2023-05-07T06:28:17;9.23;;;5.78;;
30635;SDS011;17400;52.392;9.750;2023-05-07T06:30:45;16.60;;;7.18;;
30635;SDS011;17400;52.392;9.750;2023-05-07T06:33:12;10.50;;;6.47;;
30635;SDS011;17400;52.392;9.750;2023-05-07T06:35:41;12.30;;;8.13;;
30635;SDS011;17400;52.392;9.750;2023-05-07T06:38:09;10.65;;;6.57;;
30635;SDS011;17400;52.392;9.750;2023-05-07T06:40:38;12.15;;;7.75;;
30635;SDS011;17400;52.392;9.750;2023-05-07T06:43:06;11.73;;;8.10;;
30635;SDS011;17400;52.392;9.750;2023-05-07T06:45:33;12.35;;;7.85;;
30635;SDS011;17400;52.392;9.750;2023-05-07T06:48:01;10.43;;;6.53;;
30635;SDS011;17400;52.392;9.750;2023-05-07T06:50:29;10.05;;;6.32;;
30635;SDS011;17400;52.392;9.750;2023-05-07T06:52:58;12.98;;;8.35;;
30635;SDS011;17400;52.392;9.750;2023-05-07T06:55:28;11.43;;;7.03;;
30635;SDS011;17400;52.392;9.750;2023-05-07T06:57:56;13.73;;;8.45;;
30635;SDS011;17400;52.392;9.750;2023-05-07T07:00:29;11.20;;;7.32;;
30635;SDS011;17400;52.392;9.750;2023-05-07T07:02:57;11.43;;;7.53;;
30635;SDS011;17400;52.392;9.750;2023-05-07T07:05:26;14.68;;;8.15;;
30635;SDS011;17400;52.392;9.750;2023-05-07T07:07:55;9.90;;;6.60;;
30635;SDS011;17400;52.392;9.750;2023-05-07T07:10:28;13.93;;;8.70;;
30635;SDS011;17400;52.392;9.750;2023-05-07T07:12:56;16.52;;;10.23;;
30635;SDS011;17400;52.392;9.750;2023-05-07T07:15:24;10.95;;;7.30;;
30635;SDS011;17400;52.392;9.750;2023-05-07T07:17:52;16.95;;;10.88;;
30635;SDS011;17400;52.392;9.750;2023-05-07T07:20:20;14.77;;;9.65;;
30635;SDS011;17400;52.392;9.750;2023-05-07T07:22:47;13.30;;;9.30;;
30635;SDS011;17400;52.392;9.750;2023-05-07T07:25:16;14.20;;;10.85;;
30635;SDS011;17400;52.392;9.750;2023-05-07T07:27:45;14.70;;;9.85;;
30635;SDS011;17400;52.392;9.750;2023-05-07T07:30:12;15.18;;;10.60;;
30635;SDS011;17400;52.392;9.750;2023-05-07T07:32:40;15.90;;;10.27;;
30635;SDS011;17400;52.392;9.750;2023-05-07T07:35:09;14.07;;;9.18;;
30635;SDS011;17400;52.392;9.750;2023-05-07T07:37:36;15.10;;;10.20;;
30635;SDS011;17400;52.392;9.750;2023-05-07T07:40:05;12.73;;;9.73;;
30635;SDS011;17400;52.392;9.750;2023-05-07T07:42:33;16.73;;;11.13;;
30635;SDS011;17400;52.392;9.750;2023-05-07T07:45:03;13.98;;;10.32;;
30635;SDS011;17400;52.392;9.750;2023-05-07T07:47:32;13.88;;;10.30;;
30635;SDS011;17400;52.392;9.750;2023-05-07T07:49:59;12.95;;;9.68;;
30635;SDS011;17400;52.392;9.750;2023-05-07T07:52:27;14.93;;;9.02;;
30635;SDS011;17400;52.392;9.750;2023-05-07T07:54:55;13.80;;;8.25;;
30635;SDS011;17400;52.392;9.750;2023-05-07T07:57:22;10.68;;;7.88;;
30635;SDS011;17400;52.392;9.750;2023-05-07T07:59:50;14.05;;;9.90;;
30635;SDS011;17400;52.392;9.750;2023-05-07T08:02:19;13.80;;;9.63;;
30635;SDS011;17400;52.392;9.750;2023-05-07T08:04:47;12.80;;;8.63;;
30635;SDS011;17400;52.392;9.750;2023-05-07T08:07:15;13.40;;;9.73;;
30635;SDS011;17400;52.392;9.750;2023-05-07T08:09:44;13.02;;;9.20;;
30635;SDS011;17400;52.392;9.750;2023-05-07T08:12:12;12.30;;;8.52;;
30635;SDS011;17400;52.392;9.750;2023-05-07T08:14:40;13.70;;;9.20;;
30635;SDS011;17400;52.392;9.750;2023-05-07T08:17:08;11.43;;;9.50;;
30635;SDS011;17400;52.392;9.750;2023-05-07T08:19:38;10.93;;;7.70;;
30635;SDS011;17400;52.392;9.750;2023-05-07T08:22:05;12.63;;;9.45;;
30635;SDS011;17400;52.392;9.750;2023-05-07T08:24:33;11.48;;;7.43;;
30635;SDS011;17400;52.392;9.750;2023-05-07T08:27:01;11.30;;;6.30;;
30635;SDS011;17400;52.392;9.750;2023-05-07T08:29:28;11.23;;;9.13;;
30635;SDS011;17400;52.392;9.750;2023-05-07T08:31:56;13.57;;;8.43;;
30635;SDS011;17400;52.392;9.750;2023-05-07T08:34:24;12.68;;;8.82;;
30635;SDS011;17400;52.392;9.750;2023-05-07T08:36:55;14.00;;;8.68;;
30635;SDS011;17400;52.392;9.750;2023-05-07T08:39:23;23.42;;;15.93;;
30635;SDS011;17400;52.392;9.750;2023-05-07T08:41:51;14.63;;;9.70;;
30635;SDS011;17400;52.392;9.750;2023-05-07T08:44:23;12.73;;;9.45;;
30635;SDS011;17400;52.392;9.750;2023-05-07T08:46:54;11.80;;;9.32;;
30635;SDS011;17400;52.392;9.750;2023-05-07T08:49:24;12.13;;;9.63;;
30635;SDS011;17400;52.392;9.750;2023-05-07T08:51:51;10.90;;;7.65;;
30635;SDS011;17400;52.392;9.750;2023-05-07T08:54:21;15.57;;;9.23;;
30635;SDS011;17400;52.392;9.750;2023-05-07T08:56:49;14.55;;;9.75;;
30635;SDS011;17400;52.392;9.750;2023-05-07T08:59:17;11.27;;;7.80;;
30635;SDS011;17400;52.392;9.750;2023-05-07T09:01:44;11.50;;;7.95;;
30635;SDS011;17400;52.392;9.750;2023-05-07T09:04:12;11.98;;;8.13;;
30635;SDS011;17400;52.392;9.750;2023-05-07T09:06:40;14.43;;;10.43;;
30635;SDS011;17400;52.392;9.750;2023-05-07T09:09:08;14.93;;;9.13;;
30635;SDS011;17400;52.392;9.750;2023-05-07T09:11:38;15.05;;;8.98;;
30635;SDS011;17400;52.392;9.750;2023-05-07T09:14:06;10.75;;;7.93;;
30635;SDS011;17400;52.392;9.750;2023-05-07T09:16:35;15.75;;;9.48;;
30635;SDS011;17400;52.392;9.750;2023-05-07T09:19:03;12.55;;;8.95;;
30635;SDS011;17400;52.392;9.750;2023-05-07T09:21:31;12.82;;;9.43;;
30635;SDS011;17400;52.392;9.750;2023-05-07T09:23:58;13.20;;;9.00;;
30635;SDS011;17400;52.392;9.750;2023-05-07T09:26:26;15.82;;;10.13;;
30635;SDS011;17400;52.392;9.750;2023-05-07T09:28:56;12.77;;;9.35;;
30635;SDS011;17400;52.392;9.750;2023-05-07T09:31:23;13.52;;;8.73;;
30635;SDS011;17400;52.392;9.750;2023-05-07T09:33:52;15.43;;;8.13;;
30635;SDS011;17400;52.392;9.750;2023-05-07T09:36:22;14.75;;;9.95;;
30635;SDS011;17400;52.392;9.750;2023-05-07T09:38:51;13.23;;;9.80;;
30635;SDS011;17400;52.392;9.750;2023-05-07T09:41:18;14.57;;;10.45;;
30635;SDS011;17400;52.392;9.750;2023-05-07T09:43:47;11.18;;;8.27;;
30635;SDS011;17400;52.392;9.750;2023-05-07T09:46:24;10.75;;;8.23;;
30635;SDS011;17400;52.392;9.750;2023-05-07T09:48:56;16.63;;;7.97;;
30635;SDS011;17400;52.392;9.750;2023-05-07T09:51:25;12.20;;;9.82;;
30635;SDS011;17400;52.392;9.750;2023-05-07T09:53:56;13.55;;;10.35;;
30635;SDS011;17400;52.392;9.750;2023-05-07T09:56:26;12.13;;;9.40;;
30635;SDS011;17400;52.392;9.750;2023-05-07T09:58:57;13.00;;;9.85;;
30635;SDS011;17400;52.392;9.750;2023-05-07T10:01:29;13.38;;;9.57;;
30635;SDS011;17400;52.392;9.750;2023-05-07T10:03:58;11.55;;;8.45;;
30635;SDS011;17400;52.392;9.750;2023-05-07T10:06:27;11.70;;;8.65;;
30635;SDS011;17400;52.392;9.750;2023-05-07T10:08:56;14.13;;;8.65;;
30635;SDS011;17400;52.392;9.750;2023-05-07T10:11:25;14.73;;;10.63;;
30635;SDS011;17400;52.392;9.750;2023-05-07T10:13:53;11.65;;;8.38;;
30635;SDS011;17400;52.392;9.750;2023-05-07T10:16:21;13.45;;;9.90;;
30635;SDS011;17400;52.392;9.750;2023-05-07T10:18:51;10.60;;;7.90;;
30635;SDS011;17400;52.392;9.750;2023-05-07T10:21:22;12.90;;;8.65;;
30635;SDS011;17400;52.392;9.750;2023-05-07T10:23:51;13.07;;;9.52;;
30635;SDS011;17400;52.392;9.750;2023-05-07T10:26:25;13.98;;;10.07;;
30635;SDS011;17400;52.392;9.750;2023-05-07T10:28:57;16.50;;;8.63;;
30635;SDS011;17400;52.392;9.750;2023-05-07T10:31:32;14.13;;;10.50;;
30635;SDS011;17400;52.392;9.750;2023-05-07T10:34:12;14.77;;;10.20;;
30635;SDS011;17400;52.392;9.750;2023-05-07T10:36:46;12.88;;;9.52;;
30635;SDS011;17400;52.392;9.750;2023-05-07T10:39:15;11.20;;;8.57;;
30635;SDS011;17400;52.392;9.750;2023-05-07T10:41:43;12.77;;;9.50;;
30635;SDS011;17400;52.392;9.750;2023-05-07T10:44:10;14.48;;;10.20;;
30635;SDS011;17400;52.392;9.750;2023-05-07T10:46:38;11.35;;;7.55;;
30635;SDS011;17400;52.392;9.750;2023-05-07T10:49:07;12.15;;;9.32;;
30635;SDS011;17400;52.392;9.750;2023-05-07T10:51:37;13.30;;;8.40;;
30635;SDS011;17400;52.392;9.750;2023-05-07T10:54:18;9.63;;;8.25;;
30635;SDS011;17400;52.392;9.750;2023-05-07T10:56:51;10.00;;;7.47;;
30635;SDS011;17400;52.392;9.750;2023-05-07T10:59:30;10.63;;;7.22;;
30635;SDS011;17400;52.392;9.750;2023-05-07T11:02:01;12.30;;;8.27;;
30635;SDS011;17400;52.392;9.750;2023-05-07T11:04:33;14.13;;;8.05;;
30635;SDS011;17400;52.392;9.750;2023-05-07T11:07:14;15.02;;;9.30;;
30635;SDS011;17400;52.392;9.750;2023-05-07T11:09:58;12.63;;;9.73;;
30635;SDS011;17400;52.392;9.750;2023-05-07T11:12:48;9.75;;;7.70;;
30635;SDS011;17400;52.392;9.750;2023-05-07T11:15:33;11.63;;;8.45;;
30635;SDS011;17400;52.392;9.750;2023-05-07T11:18:11;9.75;;;7.63;;
30635;SDS011;17400;52.392;9.750;2023-05-07T11:20:46;12.88;;;8.35;;
30635;SDS011;17400;52.392;9.750;2023-05-07T11:26:28;9.98;;;6.72;;
30635;SDS011;17400;52.392;9.750;2023-05-07T11:29:00;11.05;;;7.63;;
30635;SDS011;17400;52.392;9.750;2023-05-07T11:31:28;12.02;;;8.93;;
30635;SDS011;17400;52.392;9.750;2023-05-07T11:33:56;12.23;;;7.82;;
30635;SDS011;17400;52.392;9.750;2023-05-07T11:36:32;10.93;;;8.05;;
30635;SDS011;17400;52.392;9.750;2023-05-07T11:39:02;10.55;;;8.38;;
30635;SDS011;17400;52.392;9.750;2023-05-07T11:41:33;10.48;;;7.88;;
30635;SDS011;17400;52.392;9.750;2023-05-07T11:44:02;10.32;;;8.10;;
30635;SDS011;17400;52.392;9.750;2023-05-07T11:46:30;10.02;;;7.68;;
30635;SDS011;17400;52.392;9.750;2023-05-07T11:49:00;9.20;;;6.35;;
30635;SDS011;17400;52.392;9.750;2023-05-07T11:51:28;11.80;;;7.57;;
30635;SDS011;17400;52.392;9.750;2023-05-07T11:53:56;9.68;;;7.72;;
30635;SDS011;17400;52.392;9.750;2023-05-07T11:56:25;10.25;;;7.78;;
30635;SDS011;17400;52.392;9.750;2023-05-07T11:58:52;9.45;;;7.65;;
30635;SDS011;17400;52.392;9.750;2023-05-07T12:01:20;10.70;;;7.43;;
30635;SDS011;17400;52.392;9.750;2023-05-07T12:03:48;14.15;;;7.82;;
30635;SDS011;17400;52.392;9.750;2023-05-07T12:06:16;9.02;;;7.50;;
30635;SDS011;17400;52.392;9.750;2023-05-07T12:08:45;9.43;;;7.63;;
30635;SDS011;17400;52.392;9.750;2023-05-07T12:11:15;9.88;;;8.23;;
30635;SDS011;17400;52.392;9.750;2023-05-07T12:13:46;9.07;;;7.93;;
30635;SDS011;17400;52.392;9.750;2023-05-07T12:16:14;6.88;;;5.80;;
30635;SDS011;17400;52.392;9.750;2023-05-07T12:18:41;8.38;;;5.97;;
30635;SDS011;17400;52.392;9.750;2023-05-07T12:21:10;8.27;;;6.07;;
30635;SDS011;17400;52.392;9.750;2023-05-07T12:23:38;6.85;;;4.75;;
30635;SDS011;17400;52.392;9.750;2023-05-07T12:26:07;6.53;;;5.25;;
30635;SDS011;17400;52.392;9.750;2023-05-07T12:28:38;8.00;;;6.93;;
30635;SDS011;17400;52.392;9.750;2023-05-07T12:31:07;8.30;;;6.75;;
30635;SDS011;17400;52.392;9.750;2023-05-07T12:33:35;7.40;;;6.30;;
30635;SDS011;17400;52.392;9.750;2023-05-07T12:36:05;10.07;;;6.78;;
30635;SDS011;17400;52.392;9.750;2023-05-07T12:38:35;8.30;;;6.10;;
30635;SDS011;17400;52.392;9.750;2023-05-07T12:41:04;6.65;;;5.95;;
30635;SDS011;17400;52.392;9.750;2023-05-07T12:43:33;6.30;;;4.78;;
30635;SDS011;17400;52.392;9.750;2023-05-07T12:46:01;14.48;;;9.55;;
30635;SDS011;17400;52.392;9.750;2023-05-07T12:48:33;13.60;;;6.57;;
30635;SDS011;17400;52.392;9.750;2023-05-07T12:51:01;7.95;;;6.38;;
30635;SDS011;17400;52.392;9.750;2023-05-07T12:53:31;9.40;;;6.32;;
30635;SDS011;17400;52.392;9.750;2023-05-07T12:55:59;7.95;;;6.15;;
30635;SDS011;17400;52.392;9.750;2023-05-07T12:58:27;8.90;;;6.78;;
30635;SDS011;17400;52.392;9.750;2023-05-07T13:00:56;6.78;;;5.35;;
30635;SDS011;17400;52.392;9.750;2023-05-07T13:03:27;8.77;;;6.30;;
30635;SDS011;17400;52.392;9.750;2023-05-07T13:05:59;8.13;;;6.03;;
30635;SDS011;17400;52.392;9.750;2023-05-07T13:08:29;8.95;;;7.40;;
30635;SDS011;17400;52.392;9.750;2023-05-07T13:10:58;7.93;;;6.13;;
30635;SDS011;17400;52.392;9.750;2023-05-07T13:13:30;7.30;;;5.85;;
30635;SDS011;17400;52.392;9.750;2023-05-07T13:15:58;10.52;;;7.85;;
30635;SDS011;17400;52.392;9.750;2023-05-07T13:18:27;9.02;;;5.63;;
30635;SDS011;17400;52.392;9.750;2023-05-07T13:21:01;10.30;;;7.70;;
30635;SDS011;17400;52.392;9.750;2023-05-07T13:23:29;9.65;;;7.88;;
30635;SDS011;17400;52.392;9.750;2023-05-07T13:25:57;10.48;;;8.20;;
30635;SDS011;17400;52.392;9.750;2023-05-07T13:28:27;9.90;;;8.02;;
30635;SDS011;17400;52.392;9.750;2023-05-07T13:30:55;10.13;;;7.95;;
30635;SDS011;17400;52.392;9.750;2023-05-07T13:33:23;8.57;;;7.38;;
30635;SDS011;17400;52.392;9.750;2023-05-07T13:35:51;9.63;;;7.55;;
30635;SDS011;17400;52.392;9.750;2023-05-07T13:38:21;11.10;;;9.45;;
30635;SDS011;17400;52.392;9.750;2023-05-07T13:40:50;8.73;;;7.70;;
30635;SDS011;17400;52.392;9.750;2023-05-07T13:43:18;9.23;;;6.47;;
30635;SDS011;17400;52.392;9.750;2023-05-07T13:45:46;8.90;;;6.95;;
30635;SDS011;17400;52.392;9.750;2023-05-07T13:48:14;7.65;;;6.18;;
30635;SDS011;17400;52.392;9.750;2023-05-07T13:50:42;9.30;;;7.05;;
30635;SDS011;17400;52.392;9.750;2023-05-07T13:53:10;10.35;;;8.40;;
30635;SDS011;17400;52.392;9.750;2023-05-07T13:55:40;8.07;;;6.85;;
30635;SDS011;17400;52.392;9.750;2023-05-07T13:58:07;9.85;;;8.77;;
30635;SDS011;17400;52.392;9.750;2023-05-07T14:00:35;9.25;;;8.18;;
30635;SDS011;17400;52.392;9.750;2023-05-07T14:03:08;9.43;;;8.20;;
30635;SDS011;17400;52.392;9.750;2023-05-07T14:05:36;8.73;;;7.30;;
30635;SDS011;17400;52.392;9.750;2023-05-07T14:08:04;10.15;;;6.45;;
30635;SDS011;17400;52.392;9.750;2023-05-07T14:10:35;8.90;;;7.32;;
30635;SDS011;17400;52.392;9.750;2023-05-07T14:13:04;11.60;;;8.32;;
30635;SDS011;17400;52.392;9.750;2023-05-07T14:15:31;9.25;;;7.10;;
30635;SDS011;17400;52.392;9.750;2023-05-07T14:18:00;10.05;;;7.13;;
30635;SDS011;17400;52.392;9.750;2023-05-07T14:20:28;8.88;;;7.13;;
30635;SDS011;17400;52.392;9.750;2023-05-07T14:22:57;11.40;;;6.57;;
30635;SDS011;17400;52.392;9.750;2023-05-07T14:25:24;8.60;;;6.13;;
30635;SDS011;17400;52.392;9.750;2023-05-07T14:27:52;8.25;;;7.28;;
30635;SDS011;17400;52.392;9.750;2023-05-07T14:30:21;12.15;;;8.23;;
30635;SDS011;17400;52.392;9.750;2023-05-07T14:32:50;7.80;;;5.60;;
30635;SDS011;17400;52.392;9.750;2023-05-07T14:35:18;8.70;;;6.47;;
30635;SDS011;17400;52.392;9.750;2023-05-07T14:37:47;10.00;;;6.78;;
30635;SDS011;17400;52.392;9.750;2023-05-07T14:40:49;8.32;;;7.22;;
30635;SDS011;17400;52.392;9.750;2023-05-07T14:43:18;8.52;;;6.80;;
30635;SDS011;17400;52.392;9.750;2023-05-07T14:45:47;10.10;;;8.82;;